sensor_id;sensor_type;location;lat;lon;timestamp;temperature;humidity
45115;DHT22;30877;43.706;10.780;2023-10-31T00:01:32;18.90;96.70
45115;DHT22;30877;43.706;10.780;2023-10-31T00:04:00;19.00;96.70
45115;DHT22;30877;43.706;10.780;2023-10-31T00:06:29;19.00;96.70
45115;DHT22;30877;43.706;10.780;2023-10-31T00:08:57;19.00;96.70
45115;DHT22;30877;43.706;10.780;2023-10-31T00:11:25;19.00;96.70
45115;DHT22;30877;43.706;10.780;2023-10-31T00:13:53;19.00;96.70
45115;DHT22;30877;43.706;10.780;2023-10-31T00:16:21;19.00;96.70
45115;DHT22;30877;43.706;10.780;2023-10-31T00:18:51;19.00;96.70
45115;DHT22;30877;43.706;10.780;2023-10-31T00:21:20;19.00;96.70
45115;DHT22;30877;43.706;10.780;2023-10-31T00:23:48;19.00;96.70
45115;DHT22;30877;43.706;10.780;2023-10-31T00:26:17;19.00;96.70
45115;DHT22;30877;43.706;10.780;2023-10-31T00:28:51;19.00;96.70
45115;DHT22;30877;43.706;10.780;2023-10-31T00:31:20;19.00;96.70
45115;DHT22;30877;43.706;10.780;2023-10-31T00:33:48;18.90;96.70
45115;DHT22;30877;43.706;10.780;2023-10-31T00:36:18;19.00;96.70
45115;DHT22;30877;43.706;10.780;2023-10-31T00:38:46;19.10;96.70
45115;DHT22;30877;43.706;10.780;2023-10-31T00:41:14;19.20;96.70
45115;DHT22;30877;43.706;10.780;2023-10-31T00:43:42;19.30;96.70
45115;DHT22;30877;43.706;10.780;2023-10-31T00:46:10;19.20;96.70
45115;DHT22;30877;43.706;10.780;2023-10-31T00:48:39;19.10;96.70
45115;DHT22;30877;43.706;10.780;2023-10-31T00:51:07;19.10;96.70
45115;DHT22;30877;43.706;10.780;2023-10-31T00:53:36;19.10;96.70
45115;DHT22;30877;43.706;10.780;2023-10-31T00:56:05;19.00;96.70
45115;DHT22;30877;43.706;10.780;2023-10-31T00:58:33;19.00;96.70
45115;DHT22;30877;43.706;10.780;2023-10-31T01:01:02;19.00;96.70
45115;DHT22;30877;43.706;10.780;2023-10-31T01:03:30;18.90;96.70
45115;DHT22;30877;43.706;10.780;2023-10-31T01:05:59;18.90;96.70
45115;DHT22;30877;43.706;10.780;2023-10-31T01:08:27;19.00;96.70
45115;DHT22;30877;43.706;10.780;2023-10-31T01:10:57;19.00;96.70
45115;DHT22;30877;43.706;10.780;2023-10-31T01:13:25;18.90;96.70
45115;DHT22;30877;43.706;10.780;2023-10-31T01:15:54;18.90;96.70
45115;DHT22;30877;43.706;10.780;2023-10-31T01:18:22;18.90;96.70
45115;DHT22;30877;43.706;10.780;2023-10-31T01:20:50;18.90;96.70
45115;DHT22;30877;43.706;10.780;2023-10-31T01:23:19;18.90;96.70
45115;DHT22;30877;43.706;10.780;2023-10-31T01:25:47;19.00;96.70
45115;DHT22;30877;43.706;10.780;2023-10-31T01:28:17;19.10;96.70
45115;DHT22;30877;43.706;10.780;2023-10-31T01:30:45;19.20;96.70
45115;DHT22;30877;43.706;10.780;2023-10-31T01:33:13;19.20;96.70
45115;DHT22;30877;43.706;10.780;2023-10-31T01:35:42;19.20;96.70
45115;DHT22;30877;43.706;10.780;2023-10-31T01:38:10;19.20;96.70
45115;DHT22;30877;43.706;10.780;2023-10-31T01:40:38;19.20;96.70
45115;DHT22;30877;43.706;10.780;2023-10-31T01:43:06;19.20;96.70
45115;DHT22;30877;43.706;10.780;2023-10-31T01:45:37;19.20;96.70
45115;DHT22;30877;43.706;10.780;2023-10-31T01:48:05;19.30;96.70
45115;DHT22;30877;43.706;10.780;2023-10-31T01:50:33;19.30;96.70
45115;DHT22;30877;43.706;10.780;2023-10-31T01:53:02;19.30;96.70
45115;DHT22;30877;43.706;10.780;2023-10-31T01:55:31;19.20;96.70
45115;DHT22;30877;43.706;10.780;2023-10-31T01:57:59;19.20;96.70
45115;DHT22;30877;43.706;10.780;2023-10-31T02:00:45;19.20;96.70
45115;DHT22;30877;43.706;10.780;2023-10-31T02:03:14;19.20;96.70
45115;DHT22;30877;43.706;10.780;2023-10-31T02:05:43;19.10;96.70
45115;DHT22;30877;43.706;10.780;2023-10-31T02:08:11;19.10;96.70
45115;DHT22;30877;43.706;10.780;2023-10-31T02:10:39;19.10;96.70
45115;DHT22;30877;43.706;10.780;2023-10-31T02:13:11;19.00;96.70
45115;DHT22;30877;43.706;10.780;2023-10-31T02:15:40;18.90;96.70
45115;DHT22;30877;43.706;10.780;2023-10-31T02:18:09;18.80;96.70
45115;DHT22;30877;43.706;10.780;2023-10-31T02:20:38;18.70;96.70
45115;DHT22;30877;43.706;10.780;2023-10-31T02:23:08;18.70;96.70
45115;DHT22;30877;43.706;10.780;2023-10-31T02:25:36;18.60;96.70
45115;DHT22;30877;43.706;10.780;2023-10-31T02:28:05;18.50;96.70
45115;DHT22;30877;43.706;10.780;2023-10-31T02:30:34;18.50;96.70
45115;DHT22;30877;43.706;10.780;2023-10-31T02:33:03;18.40;96.70
45115;DHT22;30877;43.706;10.780;2023-10-31T02:35:31;18.30;96.70
45115;DHT22;30877;43.706;10.780;2023-10-31T02:38:00;18.30;96.70
45115;DHT22;30877;43.706;10.780;2023-10-31T02:40:30;18.30;96.70
45115;DHT22;30877;43.706;10.780;2023-10-31T02:42:58;18.20;96.70
45115;DHT22;30877;43.706;10.780;2023-10-31T02:45:26;18.20;96.70
45115;DHT22;30877;43.706;10.780;2023-10-31T02:47:55;18.10;96.70
45115;DHT22;30877;43.706;10.780;2023-10-31T02:50:23;18.10;96.70
45115;DHT22;30877;43.706;10.780;2023-10-31T02:52:52;18.00;96.70
45115;DHT22;30877;43.706;10.780;2023-10-31T02:55:20;18.00;96.70
45115;DHT22;30877;43.706;10.780;2023-10-31T02:57:50;18.00;96.70
45115;DHT22;30877;43.706;10.780;2023-10-31T03:00:18;18.00;96.70
45115;DHT22;30877;43.706;10.780;2023-10-31T03:02:47;18.00;96.70
45115;DHT22;30877;43.706;10.780;2023-10-31T03:05:15;18.00;96.70
45115;DHT22;30877;43.706;10.780;2023-10-31T03:07:44;18.00;96.70
45115;DHT22;30877;43.706;10.780;2023-10-31T03:10:12;18.00;96.70
45115;DHT22;30877;43.706;10.780;2023-10-31T03:12:41;18.00;96.70
45115;DHT22;30877;43.706;10.780;2023-10-31T03:15:11;18.00;96.70
45115;DHT22;30877;43.706;10.780;2023-10-31T03:17:39;18.00;96.70
45115;DHT22;30877;43.706;10.780;2023-10-31T03:20:09;18.00;96.70
45115;DHT22;30877;43.706;10.780;2023-10-31T03:22:37;18.00;96.70
45115;DHT22;30877;43.706;10.780;2023-10-31T03:25:06;18.10;96.70
45115;DHT22;30877;43.706;10.780;2023-10-31T03:27:35;18.10;96.70
45115;DHT22;30877;43.706;10.780;2023-10-31T03:30:04;18.10;96.70
45115;DHT22;30877;43.706;10.780;2023-10-31T03:32:34;18.10;96.70
45115;DHT22;30877;43.706;10.780;2023-10-31T03:35:03;18.20;96.70
45115;DHT22;30877;43.706;10.780;2023-10-31T03:37:31;18.30;96.70
45115;DHT22;30877;43.706;10.780;2023-10-31T03:40:00;18.30;96.70
45115;DHT22;30877;43.706;10.780;2023-10-31T03:42:28;18.40;96.70
45115;DHT22;30877;43.706;10.780;2023-10-31T03:44:56;18.40;96.70
45115;DHT22;30877;43.706;10.780;2023-10-31T03:47:25;18.40;96.70
45115;DHT22;30877;43.706;10.780;2023-10-31T03:49:54;18.40;96.70
45115;DHT22;30877;43.706;10.780;2023-10-31T03:52:23;18.70;96.70
45115;DHT22;30877;43.706;10.780;2023-10-31T03:54:51;18.70;96.70
45115;DHT22;30877;43.706;10.780;2023-10-31T03:57:19;18.80;96.70
45115;DHT22;30877;43.706;10.780;2023-10-31T03:59:47;18.80;96.70
45115;DHT22;30877;43.706;10.780;2023-10-31T04:02:15;18.80;96.70
45115;DHT22;30877;43.706;10.780;2023-10-31T04:04:43;18.70;96.70
45115;DHT22;30877;43.706;10.780;2023-10-31T04:07:12;18.70;96.70
45115;DHT22;30877;43.706;10.780;2023-10-31T04:09:40;18.60;96.70
45115;DHT22;30877;43.706;10.780;2023-10-31T04:12:08;18.50;96.70
45115;DHT22;30877;43.706;10.780;2023-10-31T04:14:38;18.40;96.70
45115;DHT22;30877;43.706;10.780;2023-10-31T04:17:15;18.30;96.70
45115;DHT22;30877;43.706;10.780;2023-10-31T04:19:43;18.20;96.70
45115;DHT22;30877;43.706;10.780;2023-10-31T04:22:13;18.20;96.70
45115;DHT22;30877;43.706;10.780;2023-10-31T04:24:41;18.20;96.70
45115;DHT22;30877;43.706;10.780;2023-10-31T04:27:09;18.20;96.70
45115;DHT22;30877;43.706;10.780;2023-10-31T04:29:37;18.20;96.70
45115;DHT22;30877;43.706;10.780;2023-10-31T04:32:05;18.30;96.70
45115;DHT22;30877;43.706;10.780;2023-10-31T04:34:33;18.30;96.70
45115;DHT22;30877;43.706;10.780;2023-10-31T04:37:01;18.30;96.70
45115;DHT22;30877;43.706;10.780;2023-10-31T04:39:31;18.30;96.70
45115;DHT22;30877;43.706;10.780;2023-10-31T04:41:59;18.30;96.70
45115;DHT22;30877;43.706;10.780;2023-10-31T04:44:27;18.20;96.70
45115;DHT22;30877;43.706;10.780;2023-10-31T04:46:54;18.20;96.70
45115;DHT22;30877;43.706;10.780;2023-10-31T04:49:22;18.20;96.70
45115;DHT22;30877;43.706;10.780;2023-10-31T04:51:50;18.20;96.70
45115;DHT22;30877;43.706;10.780;2023-10-31T04:54:18;18.30;96.70
45115;DHT22;30877;43.706;10.780;2023-10-31T04:56:49;18.30;96.70
45115;DHT22;30877;43.706;10.780;2023-10-31T04:59:17;18.40;96.70
45115;DHT22;30877;43.706;10.780;2023-10-31T05:01:49;18.50;96.70
45115;DHT22;30877;43.706;10.780;2023-10-31T05:04:17;18.40;96.70
45115;DHT22;30877;43.706;10.780;2023-10-31T05:06:46;18.40;96.70
45115;DHT22;30877;43.706;10.780;2023-10-31T05:09:14;18.40;96.70
45115;DHT22;30877;43.706;10.780;2023-10-31T05:11:42;18.30;96.70
45115;DHT22;30877;43.706;10.780;2023-10-31T05:14:12;18.20;96.70
45115;DHT22;30877;43.706;10.780;2023-10-31T05:16:41;18.20;96.70
45115;DHT22;30877;43.706;10.780;2023-10-31T05:19:10;18.30;96.70
45115;DHT22;30877;43.706;10.780;2023-10-31T05:21:38;18.20;96.70
45115;DHT22;30877;43.706;10.780;2023-10-31T05:24:07;18.30;96.70
45115;DHT22;30877;43.706;10.780;2023-10-31T05:26:34;18.30;96.70
45115;DHT22;30877;43.706;10.780;2023-10-31T05:29:02;18.20;96.70
45115;DHT22;30877;43.706;10.780;2023-10-31T05:31:31;18.20;96.70
45115;DHT22;30877;43.706;10.780;2023-10-31T05:33:59;18.10;96.70
45115;DHT22;30877;43.706;10.780;2023-10-31T05:36:27;18.00;96.70
45115;DHT22;30877;43.706;10.780;2023-10-31T05:38:55;18.00;96.70
45115;DHT22;30877;43.706;10.780;2023-10-31T05:41:23;18.00;96.70
45115;DHT22;30877;43.706;10.780;2023-10-31T05:43:50;18.00;96.70
45115;DHT22;30877;43.706;10.780;2023-10-31T05:46:20;17.90;96.70
45115;DHT22;30877;43.706;10.780;2023-10-31T05:48:49;17.90;96.70
45115;DHT22;30877;43.706;10.780;2023-10-31T05:51:19;17.90;96.70
45115;DHT22;30877;43.706;10.780;2023-10-31T05:53:53;17.80;96.70
45115;DHT22;30877;43.706;10.780;2023-10-31T05:56:21;17.70;96.70
45115;DHT22;30877;43.706;10.780;2023-10-31T05:58:49;17.70;96.70
45115;DHT22;30877;43.706;10.780;2023-10-31T06:01:16;17.70;96.70
45115;DHT22;30877;43.706;10.780;2023-10-31T06:03:45;17.70;96.70
45115;DHT22;30877;43.706;10.780;2023-10-31T06:06:14;17.70;96.70
45115;DHT22;30877;43.706;10.780;2023-10-31T06:08:42;17.60;96.70
45115;DHT22;30877;43.706;10.780;2023-10-31T06:11:10;17.60;96.70
45115;DHT22;30877;43.706;10.780;2023-10-31T06:13:40;17.60;96.70
45115;DHT22;30877;43.706;10.780;2023-10-31T06:16:08;17.60;96.70
45115;DHT22;30877;43.706;10.780;2023-10-31T06:18:38;17.50;96.70
45115;DHT22;30877;43.706;10.780;2023-10-31T06:21:07;17.60;96.70
45115;DHT22;30877;43.706;10.780;2023-10-31T06:23:39;17.70;96.70
45115;DHT22;30877;43.706;10.780;2023-10-31T06:26:07;17.80;96.70
45115;DHT22;30877;43.706;10.780;2023-10-31T06:28:36;17.80;96.70
45115;DHT22;30877;43.706;10.780;2023-10-31T06:31:12;17.80;96.70
45115;DHT22;30877;43.706;10.780;2023-10-31T06:33:41;17.80;96.70
45115;DHT22;30877;43.706;10.780;2023-10-31T06:36:09;17.90;96.70
45115;DHT22;30877;43.706;10.780;2023-10-31T06:38:37;17.90;96.70
45115;DHT22;30877;43.706;10.780;2023-10-31T06:41:06;17.90;96.70
45115;DHT22;30877;43.706;10.780;2023-10-31T06:43:34;17.90;96.70
45115;DHT22;30877;43.706;10.780;2023-10-31T06:46:02;18.00;96.70
45115;DHT22;30877;43.706;10.780;2023-10-31T06:48:32;18.10;96.70
45115;DHT22;30877;43.706;10.780;2023-10-31T06:51:00;18.20;96.70
45115;DHT22;30877;43.706;10.780;2023-10-31T06:53:28;18.20;96.70
45115;DHT22;30877;43.706;10.780;2023-10-31T06:55:55;18.20;96.70
45115;DHT22;30877;43.706;10.780;2023-10-31T06:58:25;18.30;96.70
45115;DHT22;30877;43.706;10.780;2023-10-31T07:00:54;18.30;96.70
45115;DHT22;30877;43.706;10.780;2023-10-31T07:03:25;18.40;96.70
45115;DHT22;30877;43.706;10.780;2023-10-31T07:05:54;18.50;96.70
45115;DHT22;30877;43.706;10.780;2023-10-31T07:11:15;18.50;96.70
45115;DHT22;30877;43.706;10.780;2023-10-31T07:13:44;18.60;96.70
45115;DHT22;30877;43.706;10.780;2023-10-31T07:16:13;18.70;96.70
45115;DHT22;30877;43.706;10.780;2023-10-31T07:18:41;18.70;96.70
45115;DHT22;30877;43.706;10.780;2023-10-31T07:21:08;18.80;96.70
45115;DHT22;30877;43.706;10.780;2023-10-31T07:23:36;18.80;96.70
45115;DHT22;30877;43.706;10.780;2023-10-31T07:26:05;18.90;96.70
45115;DHT22;30877;43.706;10.780;2023-10-31T07:28:33;18.90;96.70
45115;DHT22;30877;43.706;10.780;2023-10-31T07:31:03;18.90;96.70
45115;DHT22;30877;43.706;10.780;2023-10-31T07:33:33;18.90;96.70
45115;DHT22;30877;43.706;10.780;2023-10-31T07:36:01;18.90;96.70
45115;DHT22;30877;43.706;10.780;2023-10-31T07:38:29;18.90;96.70
45115;DHT22;30877;43.706;10.780;2023-10-31T07:40:57;18.90;96.70
45115;DHT22;30877;43.706;10.780;2023-10-31T07:43:25;18.80;96.70
45115;DHT22;30877;43.706;10.780;2023-10-31T07:45:52;18.60;96.70
45115;DHT22;30877;43.706;10.780;2023-10-31T07:48:22;18.30;96.70
45115;DHT22;30877;43.706;10.780;2023-10-31T07:50:50;18.20;96.70
45115;DHT22;30877;43.706;10.780;2023-10-31T07:53:18;18.10;96.70
45115;DHT22;30877;43.706;10.780;2023-10-31T07:55:46;18.00;96.70
45115;DHT22;30877;43.706;10.780;2023-10-31T07:58:14;17.90;96.70
45115;DHT22;30877;43.706;10.780;2023-10-31T08:00:42;17.90;96.70
45115;DHT22;30877;43.706;10.780;2023-10-31T08:03:10;17.90;96.70
45115;DHT22;30877;43.706;10.780;2023-10-31T08:05:40;18.00;96.70
45115;DHT22;30877;43.706;10.780;2023-10-31T08:08:09;18.10;96.70
45115;DHT22;30877;43.706;10.780;2023-10-31T08:10:37;18.20;96.70
45115;DHT22;30877;43.706;10.780;2023-10-31T08:13:06;18.30;96.70
45115;DHT22;30877;43.706;10.780;2023-10-31T08:15:34;18.40;96.70
45115;DHT22;30877;43.706;10.780;2023-10-31T08:18:03;18.50;96.70
45115;DHT22;30877;43.706;10.780;2023-10-31T08:20:31;18.50;96.70
45115;DHT22;30877;43.706;10.780;2023-10-31T08:23:03;18.50;96.70
45115;DHT22;30877;43.706;10.780;2023-10-31T08:25:31;18.60;96.70
45115;DHT22;30877;43.706;10.780;2023-10-31T08:28:00;18.70;96.70
45115;DHT22;30877;43.706;10.780;2023-10-31T08:30:28;18.90;96.70
45115;DHT22;30877;43.706;10.780;2023-10-31T08:32:56;19.10;96.70
45115;DHT22;30877;43.706;10.780;2023-10-31T08:35:25;19.20;96.70
45115;DHT22;30877;43.706;10.780;2023-10-31T08:37:54;19.30;96.70
45115;DHT22;30877;43.706;10.780;2023-10-31T08:40:24;19.40;96.70
45115;DHT22;30877;43.706;10.780;2023-10-31T08:42:52;19.40;96.70
45115;DHT22;30877;43.706;10.780;2023-10-31T08:45:21;19.40;96.70
45115;DHT22;30877;43.706;10.780;2023-10-31T08:47:51;19.40;96.70
45115;DHT22;30877;43.706;10.780;2023-10-31T08:50:20;19.50;96.70
45115;DHT22;30877;43.706;10.780;2023-10-31T08:52:48;19.50;96.70
45115;DHT22;30877;43.706;10.780;2023-10-31T08:55:17;19.60;96.70
45115;DHT22;30877;43.706;10.780;2023-10-31T08:57:47;19.60;96.70
45115;DHT22;30877;43.706;10.780;2023-10-31T09:00:16;19.60;96.70
45115;DHT22;30877;43.706;10.780;2023-10-31T09:02:44;19.60;96.70
45115;DHT22;30877;43.706;10.780;2023-10-31T09:05:13;19.70;96.70
45115;DHT22;30877;43.706;10.780;2023-10-31T09:07:41;19.70;96.70
45115;DHT22;30877;43.706;10.780;2023-10-31T09:10:11;19.70;96.70
45115;DHT22;30877;43.706;10.780;2023-10-31T09:12:39;19.70;96.70
45115;DHT22;30877;43.706;10.780;2023-10-31T09:15:10;19.60;96.70
45115;DHT22;30877;43.706;10.780;2023-10-31T09:17:38;19.70;96.70
45115;DHT22;30877;43.706;10.780;2023-10-31T09:20:08;19.80;96.70
45115;DHT22;30877;43.706;10.780;2023-10-31T09:22:36;19.80;96.70
45115;DHT22;30877;43.706;10.780;2023-10-31T09:25:05;19.80;96.70
45115;DHT22;30877;43.706;10.780;2023-10-31T09:27:34;19.90;96.70
45115;DHT22;30877;43.706;10.780;2023-10-31T09:30:02;20.00;96.70
45115;DHT22;30877;43.706;10.780;2023-10-31T09:32:33;20.00;96.70
45115;DHT22;30877;43.706;10.780;2023-10-31T09:35:01;20.00;96.70
45115;DHT22;30877;43.706;10.780;2023-10-31T09:37:30;20.10;96.70
45115;DHT22;30877;43.706;10.780;2023-10-31T09:39:59;20.10;96.70
45115;DHT22;30877;43.706;10.780;2023-10-31T09:42:27;20.10;96.70
45115;DHT22;30877;43.706;10.780;2023-10-31T09:44:56;20.20;96.70
45115;DHT22;30877;43.706;10.780;2023-10-31T09:47:25;20.30;96.70
45115;DHT22;30877;43.706;10.780;2023-10-31T09:49:55;20.20;96.70
45115;DHT22;30877;43.706;10.780;2023-10-31T09:52:24;20.20;96.70
45115;DHT22;30877;43.706;10.780;2023-10-31T09:54:56;20.20;96.70
45115;DHT22;30877;43.706;10.780;2023-10-31T09:57:26;20.10;96.70
45115;DHT22;30877;43.706;10.780;2023-10-31T09:59:54;20.00;96.70
45115;DHT22;30877;43.706;10.780;2023-10-31T10:02:23;20.00;96.70
45115;DHT22;30877;43.706;10.780;2023-10-31T10:04:51;19.90;96.70
45115;DHT22;30877;43.706;10.780;2023-10-31T10:07:22;19.80;96.70
45115;DHT22;30877;43.706;10.780;2023-10-31T10:09:50;19.90;96.70
45115;DHT22;30877;43.706;10.780;2023-10-31T10:12:18;20.00;96.70
45115;DHT22;30877;43.706;10.780;2023-10-31T10:14:47;20.10;96.70
45115;DHT22;30877;43.706;10.780;2023-10-31T10:17:17;20.10;96.70
45115;DHT22;30877;43.706;10.780;2023-10-31T10:19:46;20.10;96.70
45115;DHT22;30877;43.706;10.780;2023-10-31T10:22:14;20.00;96.70
45115;DHT22;30877;43.706;10.780;2023-10-31T10:24:44;20.10;96.70
45115;DHT22;30877;43.706;10.780;2023-10-31T10:27:13;20.30;96.70
45115;DHT22;30877;43.706;10.780;2023-10-31T10:29:41;20.40;96.70
45115;DHT22;30877;43.706;10.780;2023-10-31T10:32:12;20.50;96.70
45115;DHT22;30877;43.706;10.780;2023-10-31T10:34:43;20.50;96.70
45115;DHT22;30877;43.706;10.780;2023-10-31T10:37:11;20.30;96.70
45115;DHT22;30877;43.706;10.780;2023-10-31T10:39:41;20.20;96.70
45115;DHT22;30877;43.706;10.780;2023-10-31T10:42:13;20.10;96.70
45115;DHT22;30877;43.706;10.780;2023-10-31T10:44:44;20.20;96.70
45115;DHT22;30877;43.706;10.780;2023-10-31T10:47:18;20.20;96.70
45115;DHT22;30877;43.706;10.780;2023-10-31T10:49:48;20.20;96.70
45115;DHT22;30877;43.706;10.780;2023-10-31T10:52:23;20.10;96.70
45115;DHT22;30877;43.706;10.780;2023-10-31T10:55:01;20.20;96.70
45115;DHT22;30877;43.706;10.780;2023-10-31T10:57:46;20.10;96.70
45115;DHT22;30877;43.706;10.780;2023-10-31T11:00:16;20.30;96.70
45115;DHT22;30877;43.706;10.780;2023-10-31T11:02:45;20.50;96.70
45115;DHT22;30877;43.706;10.780;2023-10-31T11:05:15;20.60;96.70
45115;DHT22;30877;43.706;10.780;2023-10-31T11:07:44;20.60;96.70
45115;DHT22;30877;43.706;10.780;2023-10-31T11:10:14;20.60;96.70
45115;DHT22;30877;43.706;10.780;2023-10-31T11:12:45;20.60;96.70
45115;DHT22;30877;43.706;10.780;2023-10-31T11:15:15;20.40;96.70
45115;DHT22;30877;43.706;10.780;2023-10-31T11:17:45;20.30;96.70
45115;DHT22;30877;43.706;10.780;2023-10-31T11:20:16;20.30;96.70
45115;DHT22;30877;43.706;10.780;2023-10-31T11:22:45;20.40;96.70
45115;DHT22;30877;43.706;10.780;2023-10-31T11:25:15;20.40;96.70
45115;DHT22;30877;43.706;10.780;2023-10-31T11:28:12;20.30;96.70
45115;DHT22;30877;43.706;10.780;2023-10-31T11:30:41;20.20;96.70
45115;DHT22;30877;43.706;10.780;2023-10-31T11:33:14;20.40;96.70
45115;DHT22;30877;43.706;10.780;2023-10-31T11:35:43;20.70;96.70
45115;DHT22;30877;43.706;10.780;2023-10-31T11:38:14;20.90;96.70
45115;DHT22;30877;43.706;10.780;2023-10-31T11:41:02;21.00;96.70
45115;DHT22;30877;43.706;10.780;2023-10-31T11:43:52;20.90;96.70
45115;DHT22;30877;43.706;10.780;2023-10-31T11:46:22;20.70;96.70
45115;DHT22;30877;43.706;10.780;2023-10-31T11:48:54;21.00;96.70
45115;DHT22;30877;43.706;10.780;2023-10-31T11:51:26;21.20;96.70
45115;DHT22;30877;43.706;10.780;2023-10-31T11:53:55;21.00;96.70
45115;DHT22;30877;43.706;10.780;2023-10-31T11:56:24;21.10;96.70
45115;DHT22;30877;43.706;10.780;2023-10-31T11:59:00;21.00;96.70
45115;DHT22;30877;43.706;10.780;2023-10-31T12:01:29;21.10;96.70
45115;DHT22;30877;43.706;10.780;2023-10-31T12:03:57;20.90;96.70
45115;DHT22;30877;43.706;10.780;2023-10-31T12:06:25;20.50;96.70
45115;DHT22;30877;43.706;10.780;2023-10-31T12:08:59;20.40;96.70
45115;DHT22;30877;43.706;10.780;2023-10-31T12:11:28;20.50;96.70
45115;DHT22;30877;43.706;10.780;2023-10-31T12:14:21;20.80;96.70
45115;DHT22;30877;43.706;10.780;2023-10-31T12:16:49;20.90;96.70
45115;DHT22;30877;43.706;10.780;2023-10-31T12:19:33;20.90;96.70
45115;DHT22;30877;43.706;10.780;2023-10-31T12:22:01;21.00;96.70
45115;DHT22;30877;43.706;10.780;2023-10-31T12:24:30;20.70;96.70
45115;DHT22;30877;43.706;10.780;2023-10-31T12:27:01;20.40;96.70
45115;DHT22;30877;43.706;10.780;2023-10-31T12:29:31;20.20;96.70
45115;DHT22;30877;43.706;10.780;2023-10-31T12:31:59;20.20;96.70
45115;DHT22;30877;43.706;10.780;2023-10-31T12:34:27;20.20;96.70
45115;DHT22;30877;43.706;10.780;2023-10-31T12:36:55;20.50;96.70
45115;DHT22;30877;43.706;10.780;2023-10-31T12:39:26;20.60;96.70
45115;DHT22;30877;43.706;10.780;2023-10-31T12:41:56;20.60;96.70
45115;DHT22;30877;43.706;10.780;2023-10-31T12:44:26;20.70;96.70
45115;DHT22;30877;43.706;10.780;2023-10-31T12:46:58;20.80;96.70
45115;DHT22;30877;43.706;10.780;2023-10-31T12:49:27;20.40;96.70
45115;DHT22;30877;43.706;10.780;2023-10-31T12:51:57;20.10;96.70
45115;DHT22;30877;43.706;10.780;2023-10-31T12:54:29;19.90;96.70
45115;DHT22;30877;43.706;10.780;2023-10-31T12:57:02;19.70;96.70
45115;DHT22;30877;43.706;10.780;2023-10-31T12:59:32;19.60;96.70
45115;DHT22;30877;43.706;10.780;2023-10-31T13:02:02;19.60;96.70
45115;DHT22;30877;43.706;10.780;2023-10-31T13:04:32;19.50;96.70
45115;DHT22;30877;43.706;10.780;2023-10-31T13:07:01;19.50;96.70
45115;DHT22;30877;43.706;10.780;2023-10-31T13:09:31;19.60;96.70
45115;DHT22;30877;43.706;10.780;2023-10-31T13:12:00;19.70;96.70
45115;DHT22;30877;43.706;10.780;2023-10-31T13:14:29;19.70;96.70
45115;DHT22;30877;43.706;10.780;2023-10-31T13:16:58;19.60;96.70
45115;DHT22;30877;43.706;10.780;2023-10-31T13:19:28;19.60;96.70
45115;DHT22;30877;43.706;10.780;2023-10-31T13:21:56;19.50;96.70
45115;DHT22;30877;43.706;10.780;2023-10-31T13:24:24;19.40;96.70
45115;DHT22;30877;43.706;10.780;2023-10-31T13:26:52;19.40;96.70
45115;DHT22;30877;43.706;10.780;2023-10-31T13:29:22;19.40;96.70
45115;DHT22;30877;43.706;10.780;2023-10-31T13:32:11;19.40;96.70
45115;DHT22;30877;43.706;10.780;2023-10-31T13:34:40;19.50;96.70
45115;DHT22;30877;43.706;10.780;2023-10-31T13:37:09;19.70;96.70
45115;DHT22;30877;43.706;10.780;2023-10-31T13:39:37;19.70;96.70
45115;DHT22;30877;43.706;10.780;2023-10-31T13:42:05;19.60;96.70
45115;DHT22;30877;43.706;10.780;2023-10-31T13:44:33;19.70;96.70
45115;DHT22;30877;43.706;10.780;2023-10-31T13:47:02;19.80;96.70
45115;DHT22;30877;43.706;10.780;2023-10-31T13:49:30;20.00;96.70
45115;DHT22;30877;43.706;10.780;2023-10-31T13:52:00;20.00;96.70
45115;DHT22;30877;43.706;10.780;2023-10-31T13:54:28;20.10;96.70
45115;DHT22;30877;43.706;10.780;2023-10-31T13:56:56;20.30;96.70
45115;DHT22;30877;43.706;10.780;2023-10-31T13:59:24;20.30;96.70
45115;DHT22;30877;43.706;10.780;2023-10-31T14:01:52;20.40;96.70
45115;DHT22;30877;43.706;10.780;2023-10-31T14:04:20;20.30;96.70
45115;DHT22;30877;43.706;10.780;2023-10-31T14:06:49;20.20;96.70
45115;DHT22;30877;43.706;10.780;2023-10-31T14:09:18;20.20;96.70
45115;DHT22;30877;43.706;10.780;2023-10-31T14:11:47;20.00;96.70
45115;DHT22;30877;43.706;10.780;2023-10-31T14:14:15;19.80;96.70
45115;DHT22;30877;43.706;10.780;2023-10-31T14:16:49;19.70;96.70
45115;DHT22;30877;43.706;10.780;2023-10-31T14:19:17;19.80;96.70
45115;DHT22;30877;43.706;10.780;2023-10-31T14:21:45;19.70;96.70
45115;DHT22;30877;43.706;10.780;2023-10-31T14:24:13;19.60;96.70
45115;DHT22;30877;43.706;10.780;2023-10-31T14:26:43;19.60;96.70
45115;DHT22;30877;43.706;10.780;2023-10-31T14:29:30;19.70;96.70
45115;DHT22;30877;43.706;10.780;2023-10-31T14:32:05;19.70;96.70
45115;DHT22;30877;43.706;10.780;2023-10-31T14:34:34;19.70;96.70
45115;DHT22;30877;43.706;10.780;2023-10-31T14:37:02;19.70;96.70
45115;DHT22;30877;43.706;10.780;2023-10-31T14:39:30;19.60;96.70
45115;DHT22;30877;43.706;10.780;2023-10-31T14:41:59;19.60;96.70
45115;DHT22;30877;43.706;10.780;2023-10-31T14:44:28;19.70;96.70
45115;DHT22;30877;43.706;10.780;2023-10-31T14:46:56;19.60;96.70
45115;DHT22;30877;43.706;10.780;2023-10-31T14:49:24;19.50;96.70
45115;DHT22;30877;43.706;10.780;2023-10-31T14:51:52;19.40;96.70
45115;DHT22;30877;43.706;10.780;2023-10-31T14:54:20;19.30;96.70
45115;DHT22;30877;43.706;10.780;2023-10-31T14:56:48;19.20;96.70
45115;DHT22;30877;43.706;10.780;2023-10-31T14:59:18;19.10;96.70
45115;DHT22;30877;43.706;10.780;2023-10-31T15:01:46;19.10;96.70
45115;DHT22;30877;43.706;10.780;2023-10-31T15:04:14;19.00;96.70
45115;DHT22;30877;43.706;10.780;2023-10-31T15:06:44;19.20;96.70
45115;DHT22;30877;43.706;10.780;2023-10-31T15:09:12;19.50;96.70
45115;DHT22;30877;43.706;10.780;2023-10-31T15:11:40;19.20;96.70
45115;DHT22;30877;43.706;10.780;2023-10-31T15:14:08;18.90;96.70
45115;DHT22;30877;43.706;10.780;2023-10-31T15:16:38;18.80;96.70
45115;DHT22;30877;43.706;10.780;2023-10-31T15:19:06;18.80;96.70
45115;DHT22;30877;43.706;10.780;2023-10-31T15:21:34;18.80;96.70
45115;DHT22;30877;43.706;10.780;2023-10-31T15:24:03;18.80;96.70
45115;DHT22;30877;43.706;10.780;2023-10-31T15:26:35;18.80;96.70
45115;DHT22;30877;43.706;10.780;2023-10-31T15:29:05;18.80;96.70
45115;DHT22;30877;43.706;10.780;2023-10-31T15:31:33;18.80;96.70